createdAt,value
2018-08-11T00:01:02.988Z,0.00
2018-08-11T00:02:09.298Z,0.00
2018-08-11T00:03:15.604Z,0.00
2018-08-11T00:04:21.917Z,0.00
2018-08-11T00:05:28.226Z,0.00
2018-08-11T00:06:34.538Z,0.00
2018-08-11T00:07:40.852Z,0.00
2018-08-11T00:08:47.159Z,0.00
2018-08-11T00:09:53.916Z,0.00
2018-08-11T00:10:59.779Z,0.00
2018-08-11T00:12:06.074Z,0.00
2018-08-11T00:13:12.380Z,0.00
2018-08-11T00:14:18.677Z,0.00
2018-08-11T00:15:24.989Z,0.00
2018-08-11T00:16:31.298Z,0.00
2018-08-11T00:17:37.606Z,0.00
2018-08-11T00:18:43.892Z,0.00
2018-08-11T00:19:50.197Z,0.00
2018-08-11T00:20:56.499Z,0.00
2018-08-11T00:22:02.835Z,0.00
2018-08-11T00:23:09.109Z,0.00
2018-08-11T00:24:15.405Z,0.00
2018-08-11T00:25:21.708Z,0.00
2018-08-11T00:26:28.007Z,0.00
2018-08-11T00:27:34.319Z,0.00
2018-08-11T00:28:40.588Z,0.00
2018-08-11T00:29:46.883Z,0.00
2018-08-11T00:30:53.187Z,0.00
2018-08-11T00:31:59.492Z,0.00
2018-08-11T00:33:05.785Z,0.00
2018-08-11T00:34:12.067Z,0.00
2018-08-11T00:35:18.359Z,0.00
2018-08-11T00:36:24.685Z,0.00
2018-08-11T00:37:30.940Z,0.00
2018-08-11T00:38:37.238Z,0.00
2018-08-11T00:39:43.530Z,0.00
2018-08-11T00:40:50.006Z,0.00
2018-08-11T00:41:56.101Z,0.00
2018-08-11T00:43:02.377Z,0.00
2018-08-11T00:44:08.661Z,0.00
2018-08-11T00:45:14.958Z,0.00
2018-08-11T00:46:21.748Z,0.00
2018-08-11T00:47:27.547Z,0.00
2018-08-11T00:48:33.810Z,0.00
2018-08-11T00:49:40.097Z,0.00
2018-08-11T00:50:46.376Z,0.00
2018-08-11T00:51:53.299Z,0.00
2018-08-11T00:52:58.946Z,0.00
2018-08-11T00:54:05.217Z,0.00
2018-08-11T00:55:11.504Z,0.00
2018-08-11T00:56:17.804Z,0.00
2018-08-11T00:57:24.075Z,0.00
2018-08-11T00:58:30.348Z,0.00
2018-08-11T00:59:36.636Z,0.00
2018-08-11T01:00:42.920Z,0.00
2018-08-11T01:01:49.320Z,0.00
2018-08-11T01:02:55.484Z,0.00
2018-08-11T01:04:01.763Z,0.00
2018-08-11T01:05:08.535Z,0.00
2018-08-11T01:06:14.336Z,0.00
2018-08-11T01:07:20.601Z,0.00
2018-08-11T01:08:26.881Z,0.00
2018-08-11T01:09:33.156Z,0.00
2018-08-11T01:10:39.432Z,0.00
2018-08-11T01:11:45.726Z,0.00
2018-08-11T01:12:52.494Z,0.00
2018-08-11T01:13:59.268Z,0.00
2018-08-11T01:15:04.548Z,0.00
2018-08-11T01:16:10.835Z,0.00
2018-08-11T01:17:17.122Z,0.00
2018-08-11T01:18:23.390Z,0.00
2018-08-11T01:19:29.667Z,0.00
2018-08-11T01:20:35.941Z,0.00
2018-08-11T01:21:42.233Z,0.00
2018-08-11T01:22:48.505Z,0.00
2018-08-11T01:23:54.788Z,0.00
2018-08-11T01:25:01.118Z,0.00
2018-08-11T01:26:07.348Z,0.00
2018-08-11T01:27:13.637Z,0.00
2018-08-11T01:28:19.910Z,0.00
2018-08-11T01:29:26.311Z,0.00
2018-08-11T01:30:33.487Z,0.00
2018-08-11T01:31:38.772Z,0.00
2018-08-11T01:32:45.060Z,0.00
2018-08-11T01:33:51.343Z,0.00
2018-08-11T01:35:04.572Z,0.00
2018-08-11T01:36:12.207Z,0.00
2018-08-11T01:37:18.497Z,0.00
2018-08-11T01:38:24.787Z,0.00
2018-08-11T01:39:31.082Z,0.00
2018-08-11T01:40:37.365Z,0.00
2018-08-11T01:41:43.656Z,0.00
2018-08-11T01:42:49.954Z,0.00
2018-08-11T01:43:56.246Z,0.00
2018-08-11T01:45:03.023Z,0.00
2018-08-11T01:46:08.826Z,0.00
2018-08-11T01:47:15.128Z,0.00
2018-08-11T01:48:21.421Z,0.00
2018-08-11T01:49:27.720Z,0.00
2018-08-11T01:50:34.012Z,0.00
2018-08-11T01:51:40.315Z,0.00
2018-08-11T01:52:46.610Z,0.00
2018-08-11T01:53:52.904Z,0.00
2018-08-11T01:54:59.211Z,0.00
2018-08-11T01:56:05.506Z,0.00
2018-08-11T01:57:11.817Z,0.00
2018-08-11T01:58:18.126Z,0.00
2018-08-11T01:59:24.429Z,0.00
2018-08-11T02:00:30.723Z,0.00
2018-08-11T02:01:37.036Z,0.00
2018-08-11T02:02:43.334Z,0.00
2018-08-11T02:03:49.645Z,0.00
2018-08-11T02:04:55.950Z,0.00
2018-08-11T02:06:02.260Z,0.00
2018-08-11T02:07:08.617Z,0.00
2018-08-11T02:08:14.885Z,0.00
2018-08-11T02:09:21.191Z,0.00
2018-08-11T02:10:27.497Z,0.00
2018-08-11T02:11:33.842Z,0.00
2018-08-11T02:12:40.133Z,0.00
2018-08-11T02:13:46.449Z,0.00
2018-08-11T02:14:52.763Z,0.00
2018-08-11T02:15:59.088Z,0.00
2018-08-11T02:17:05.414Z,0.00
2018-08-11T02:18:11.727Z,0.00
2018-08-11T02:19:18.053Z,0.00
2018-08-11T02:20:24.373Z,0.00
2018-08-11T02:21:30.695Z,0.00
2018-08-11T02:22:37.036Z,0.00
2018-08-11T02:23:43.357Z,0.00
2018-08-11T02:24:49.770Z,0.00
2018-08-11T02:25:56.011Z,0.00
2018-08-11T02:27:02.352Z,0.00
2018-08-11T02:28:08.671Z,0.00
2018-08-11T02:29:15.017Z,0.00
2018-08-11T02:30:21.336Z,0.00
2018-08-11T02:31:27.678Z,0.00
2018-08-11T02:32:34.007Z,0.00
2018-08-11T02:33:40.375Z,0.00
2018-08-11T02:34:46.679Z,0.00
2018-08-11T02:35:53.014Z,0.00
2018-08-11T02:36:59.349Z,0.00
2018-08-11T02:38:05.686Z,0.00
2018-08-11T02:39:12.019Z,0.00
2018-08-11T02:40:18.361Z,0.00
2018-08-11T02:41:24.706Z,0.00
2018-08-11T02:42:32.052Z,0.00
2018-08-11T02:43:37.384Z,0.00
2018-08-11T02:44:43.733Z,0.00
2018-08-11T02:45:50.068Z,0.00
2018-08-11T02:46:56.425Z,0.00
2018-08-11T02:48:02.758Z,0.00
2018-08-11T02:49:09.111Z,0.00
2018-08-11T02:50:15.450Z,0.00
2018-08-11T02:51:21.787Z,0.00
2018-08-11T02:52:29.135Z,0.00
2018-08-11T02:53:34.478Z,0.00
2018-08-11T02:54:40.815Z,0.00
2018-08-11T02:55:47.156Z,0.00
2018-08-11T02:56:53.498Z,0.00
2018-08-11T02:57:59.855Z,0.00
2018-08-11T02:59:06.197Z,0.00
2018-08-11T03:00:12.540Z,0.00
2018-08-11T03:01:18.884Z,0.00
2018-08-11T03:02:25.272Z,0.00
2018-08-11T03:03:31.579Z,0.00
2018-08-11T03:04:37.932Z,0.00
2018-08-11T03:05:44.288Z,0.00
2018-08-11T03:06:50.631Z,0.00
2018-08-11T03:07:56.987Z,0.00
2018-08-11T03:09:03.337Z,0.00
2018-08-11T03:10:09.695Z,0.00
2018-08-11T03:11:16.047Z,0.00
2018-08-11T03:12:22.412Z,0.00
2018-08-11T03:13:28.762Z,0.00
2018-08-11T03:14:35.126Z,0.00
2018-08-11T03:15:41.478Z,0.00
2018-08-11T03:16:47.826Z,0.00
2018-08-11T03:17:54.193Z,0.00
2018-08-11T03:19:00.562Z,0.00
2018-08-11T03:20:06.916Z,0.00
2018-08-11T03:21:13.273Z,0.00
2018-08-11T03:22:19.635Z,0.00
2018-08-11T03:23:25.992Z,0.00
2018-08-11T03:24:32.349Z,0.00
2018-08-11T03:25:38.711Z,0.00
2018-08-11T03:26:46.568Z,0.00
2018-08-11T03:27:51.450Z,0.00
2018-08-11T03:28:57.811Z,0.00
2018-08-11T03:30:04.303Z,0.00
2018-08-11T03:31:10.549Z,0.00
2018-08-11T03:32:16.937Z,0.00
2018-08-11T03:33:23.288Z,0.00
2018-08-11T03:34:29.654Z,0.00
2018-08-11T03:35:36.030Z,0.00
2018-08-11T03:36:42.402Z,0.00
2018-08-11T03:37:48.778Z,0.00
2018-08-11T03:38:55.143Z,0.00
2018-08-11T03:40:01.519Z,0.00
2018-08-11T03:41:07.891Z,0.00
2018-08-11T03:42:14.270Z,0.00
2018-08-11T03:43:20.644Z,0.00
2018-08-11T03:44:27.008Z,0.00
2018-08-11T03:45:33.887Z,0.00
2018-08-11T03:46:39.770Z,0.00
2018-08-11T03:47:46.141Z,0.00
2018-08-11T03:48:52.522Z,0.00
2018-08-11T03:49:58.895Z,0.00
2018-08-11T03:51:05.266Z,0.00
2018-08-11T03:52:11.646Z,0.00
2018-08-11T03:53:18.020Z,0.00
2018-08-11T03:54:24.389Z,0.00
2018-08-11T03:55:30.761Z,0.00
2018-08-11T03:56:37.137Z,0.00
2018-08-11T03:57:43.518Z,0.00
2018-08-11T03:58:49.896Z,0.00
2018-08-11T03:59:56.284Z,0.00
2018-08-11T04:01:02.641Z,0.00
2018-08-11T04:02:09.034Z,5.63
2018-08-11T04:03:15.421Z,5.63
2018-08-11T04:04:21.780Z,5.63
2018-08-11T04:05:28.166Z,5.63
2018-08-11T04:06:34.591Z,5.63
2018-08-11T04:07:40.925Z,5.63
2018-08-11T04:08:47.289Z,5.63
2018-08-11T04:09:53.661Z,5.63
2018-08-11T04:11:00.052Z,11.25
2018-08-11T04:12:06.414Z,11.25
2018-08-11T04:13:12.816Z,11.25
2018-08-11T04:14:19.300Z,11.25
2018-08-11T04:15:25.553Z,11.25
2018-08-11T04:16:31.936Z,11.25
2018-08-11T04:17:38.315Z,11.25
2018-08-11T04:18:44.699Z,16.88
2018-08-11T04:19:51.072Z,16.88
2018-08-11T04:20:57.458Z,16.88
2018-08-11T04:22:03.834Z,22.50
2018-08-11T04:23:10.224Z,22.50
2018-08-11T04:24:17.605Z,22.50
2018-08-11T04:25:22.981Z,28.13
2018-08-11T04:26:29.366Z,28.13
2018-08-11T04:27:35.758Z,28.13
2018-08-11T04:28:42.132Z,28.13
2018-08-11T04:29:48.512Z,33.75
2018-08-11T04:30:54.911Z,33.75
2018-08-11T04:32:01.298Z,33.75
2018-08-11T04:33:07.708Z,33.75
2018-08-11T04:34:14.073Z,39.38
2018-08-11T04:35:20.463Z,39.38
2018-08-11T04:36:26.876Z,39.38
2018-08-11T04:37:33.242Z,39.38
2018-08-11T04:38:39.637Z,39.38
2018-08-11T04:39:46.028Z,45.00
2018-08-11T04:40:52.413Z,45.00
2018-08-11T04:41:58.817Z,45.00
2018-08-11T04:43:05.198Z,45.00
2018-08-11T04:44:11.592Z,45.00
2018-08-11T04:45:17.987Z,45.00
2018-08-11T04:46:24.383Z,39.38
2018-08-11T04:47:30.780Z,39.38
2018-08-11T04:48:37.178Z,33.75
2018-08-11T04:49:43.566Z,33.75
2018-08-11T04:50:49.953Z,33.75
2018-08-11T04:51:56.355Z,33.75
2018-08-11T04:53:02.766Z,33.75
2018-08-11T04:54:09.299Z,39.38
2018-08-11T04:55:15.552Z,39.38
2018-08-11T04:56:21.958Z,39.38
2018-08-11T04:57:28.356Z,45.00
2018-08-11T04:58:34.771Z,50.63
2018-08-11T04:59:41.166Z,56.25
2018-08-11T05:00:47.589Z,61.88
2018-08-11T05:01:53.983Z,67.50
2018-08-11T05:03:00.396Z,73.13
2018-08-11T05:04:06.800Z,78.75
2018-08-11T05:05:14.213Z,78.75
2018-08-11T05:06:19.623Z,84.38
2018-08-11T05:07:26.050Z,84.38
2018-08-11T05:08:32.458Z,84.38
2018-08-11T05:09:38.878Z,84.38
2018-08-11T05:10:45.285Z,90.00
2018-08-11T05:11:51.693Z,95.63
2018-08-11T05:12:58.127Z,95.63
2018-08-11T05:14:04.532Z,101.25
2018-08-11T05:15:10.956Z,101.25
2018-08-11T05:16:17.368Z,101.25
2018-08-11T05:17:23.787Z,106.88
2018-08-11T05:18:30.716Z,112.50
2018-08-11T05:19:36.632Z,118.13
2018-08-11T05:20:43.061Z,118.13
2018-08-11T05:21:49.489Z,118.13
2018-08-11T05:22:55.910Z,118.13
2018-08-11T05:24:02.335Z,123.75
2018-08-11T05:25:08.763Z,129.38
2018-08-11T05:26:15.362Z,135.00
2018-08-11T05:27:21.614Z,135.00
2018-08-11T05:28:28.056Z,135.00
2018-08-11T05:29:34.586Z,135.00
2018-08-11T05:30:40.908Z,129.38
2018-08-11T05:31:47.337Z,123.75
2018-08-11T05:32:53.773Z,129.38
2018-08-11T05:34:00.213Z,129.38
2018-08-11T05:35:06.641Z,129.38
2018-08-11T05:36:13.077Z,129.38
2018-08-11T05:37:19.502Z,123.75
2018-08-11T05:38:25.956Z,118.13
2018-08-11T05:39:32.378Z,112.50
2018-08-11T05:40:38.852Z,118.13
2018-08-11T05:41:45.337Z,123.75
2018-08-11T05:42:51.693Z,123.75
2018-08-11T05:43:58.146Z,112.50
2018-08-11T05:45:04.583Z,112.50
2018-08-11T05:46:11.017Z,106.88
2018-08-11T05:47:17.461Z,112.50
2018-08-11T05:48:23.908Z,118.13
2018-08-11T05:49:30.354Z,123.75
2018-08-11T05:50:36.818Z,123.75
2018-08-11T05:51:43.239Z,129.38
2018-08-11T05:52:49.689Z,135.00
2018-08-11T05:53:56.143Z,151.88
2018-08-11T05:55:02.587Z,163.13
2018-08-11T05:56:09.022Z,180.00
2018-08-11T05:57:15.461Z,202.50
2018-08-11T05:58:21.914Z,219.38
2018-08-11T05:59:28.369Z,241.88
2018-08-11T06:00:34.823Z,292.50
2018-08-11T06:01:41.281Z,309.38
2018-08-11T06:02:47.744Z,298.13
2018-08-11T06:03:54.265Z,264.38
2018-08-11T06:05:00.688Z,230.63
2018-08-11T06:06:07.170Z,208.13
2018-08-11T06:07:13.633Z,191.25
2018-08-11T06:08:20.122Z,185.63
2018-08-11T06:09:26.596Z,191.25
2018-08-11T06:10:33.149Z,213.75
2018-08-11T06:11:39.563Z,225.00
2018-08-11T06:12:46.051Z,219.38
2018-08-11T06:13:52.529Z,196.88
2018-08-11T06:14:59.007Z,191.25
2018-08-11T06:16:05.499Z,185.63
2018-08-11T06:17:12.496Z,185.63
2018-08-11T06:18:18.481Z,225.00
2018-08-11T06:19:24.945Z,275.63
2018-08-11T06:20:31.439Z,281.25
2018-08-11T06:21:37.952Z,236.25
2018-08-11T06:22:44.438Z,225.00
2018-08-11T06:23:50.951Z,230.63
2018-08-11T06:24:57.431Z,270.00
2018-08-11T06:26:03.979Z,258.75
2018-08-11T06:27:10.436Z,230.63
2018-08-11T06:28:16.955Z,236.25
2018-08-11T06:29:23.461Z,247.50
2018-08-11T06:30:29.993Z,253.13
2018-08-11T06:31:37.072Z,270.00
2018-08-11T06:32:42.977Z,281.25
2018-08-11T06:33:49.487Z,286.88
2018-08-11T06:34:56.003Z,270.00
2018-08-11T06:36:02.543Z,264.38
2018-08-11T06:37:09.034Z,258.75
2018-08-11T06:38:15.577Z,225.00
2018-08-11T06:39:22.059Z,213.75
2018-08-11T06:40:28.623Z,219.38
2018-08-11T06:41:35.084Z,219.38
2018-08-11T06:42:41.601Z,230.63
2018-08-11T06:43:48.111Z,253.13
2018-08-11T06:44:54.621Z,292.50
2018-08-11T06:46:01.119Z,298.13
2018-08-11T06:47:07.704Z,298.13
2018-08-11T06:48:14.163Z,264.38
2018-08-11T06:49:20.684Z,208.13
2018-08-11T06:50:27.203Z,180.00
2018-08-11T06:51:33.706Z,163.13
2018-08-11T06:52:40.217Z,151.88
2018-08-11T06:53:46.726Z,146.25
2018-08-11T06:54:53.217Z,135.00
2018-08-11T06:55:59.707Z,135.00
2018-08-11T06:57:06.244Z,140.63
2018-08-11T06:58:12.754Z,151.88
2018-08-11T06:59:19.214Z,151.88
2018-08-11T07:00:25.693Z,157.50
2018-08-11T07:01:32.191Z,151.88
2018-08-11T07:02:38.686Z,151.88
2018-08-11T07:03:46.181Z,151.88
2018-08-11T07:04:51.672Z,151.88
2018-08-11T07:05:58.167Z,146.25
2018-08-11T07:07:04.747Z,146.25
2018-08-11T07:08:11.263Z,151.88
2018-08-11T07:09:17.653Z,163.13
2018-08-11T07:10:24.637Z,151.88
2018-08-11T07:11:30.645Z,174.38
2018-08-11T07:12:37.136Z,180.00
2018-08-11T07:13:43.639Z,157.50
2018-08-11T07:14:50.141Z,168.75
2018-08-11T07:15:56.631Z,168.75
2018-08-11T07:17:03.139Z,151.88
2018-08-11T07:18:09.635Z,151.88
2018-08-11T07:19:16.138Z,157.50
2018-08-11T07:20:22.639Z,151.88
2018-08-11T07:21:29.172Z,151.88
2018-08-11T07:22:35.635Z,157.50
2018-08-11T07:23:42.149Z,163.13
2018-08-11T07:24:48.655Z,157.50
2018-08-11T07:25:55.279Z,163.13
2018-08-11T07:27:01.677Z,163.13
2018-08-11T07:28:08.186Z,168.75
2018-08-11T07:29:14.714Z,168.75
2018-08-11T07:30:21.342Z,157.50
2018-08-11T07:31:27.739Z,151.88
2018-08-11T07:32:34.259Z,157.50
2018-08-11T07:33:41.101Z,163.13
2018-08-11T07:34:47.329Z,157.50
2018-08-11T07:35:53.831Z,157.50
2018-08-11T07:37:00.363Z,168.75
2018-08-11T07:38:06.896Z,163.13
2018-08-11T07:39:13.419Z,163.13
2018-08-11T07:40:19.951Z,168.75
2018-08-11T07:41:26.937Z,185.63
2018-08-11T07:42:33.012Z,213.75
2018-08-11T07:43:40.049Z,208.13
2018-08-11T07:44:46.097Z,208.13
2018-08-11T07:45:53.636Z,219.38
2018-08-11T07:46:59.277Z,219.38
2018-08-11T07:48:05.734Z,208.13
2018-08-11T07:49:12.281Z,196.88
2018-08-11T07:50:18.899Z,191.25
2018-08-11T07:51:25.378Z,180.00
2018-08-11T07:52:31.933Z,174.38
2018-08-11T07:53:38.483Z,151.88
2018-08-11T07:54:46.036Z,174.38
2018-08-11T07:55:51.576Z,157.50
2018-08-11T07:56:58.121Z,180.00
2018-08-11T07:58:04.658Z,180.00
2018-08-11T07:59:11.222Z,185.63
2018-08-11T08:00:17.767Z,185.63
2018-08-11T08:01:24.375Z,185.63
2018-08-11T08:02:30.863Z,185.63
2018-08-11T08:03:37.404Z,185.63
2018-08-11T08:04:43.971Z,185.63
2018-08-11T08:05:50.520Z,185.63
2018-08-11T08:06:57.575Z,196.88
2018-08-11T08:08:03.655Z,208.13
2018-08-11T08:09:10.195Z,213.75
2018-08-11T08:10:17.268Z,213.75
2018-08-11T08:11:23.315Z,219.38
2018-08-11T08:12:29.876Z,225.00
2018-08-11T08:13:36.476Z,225.00
2018-08-11T08:14:42.998Z,241.88
2018-08-11T08:15:49.558Z,202.50
2018-08-11T08:16:56.121Z,202.50
2018-08-11T08:18:02.680Z,196.88
2018-08-11T08:19:09.237Z,230.63
2018-08-11T08:20:15.852Z,180.00
2018-08-11T08:21:23.381Z,180.00
2018-08-11T08:22:28.960Z,185.63
2018-08-11T08:23:35.507Z,208.13
2018-08-11T08:24:42.086Z,247.50
2018-08-11T08:25:48.668Z,315.00
2018-08-11T08:26:55.290Z,354.38
2018-08-11T08:28:01.788Z,337.50
2018-08-11T08:29:08.353Z,292.50
2018-08-11T08:30:15.133Z,298.13
2018-08-11T08:31:21.525Z,315.00
2018-08-11T08:32:28.104Z,371.25
2018-08-11T08:33:34.687Z,421.88
2018-08-11T08:34:41.804Z,337.50
2018-08-11T08:35:47.894Z,315.00
2018-08-11T08:36:54.513Z,286.88
2018-08-11T08:38:01.423Z,298.13
2018-08-11T08:39:07.917Z,264.38
2018-08-11T08:40:14.338Z,253.13
2018-08-11T08:41:20.937Z,191.25
2018-08-11T08:42:27.546Z,196.88
2018-08-11T08:43:34.140Z,264.38
2018-08-11T08:44:40.750Z,275.63
2018-08-11T08:45:47.348Z,225.00
2018-08-11T08:46:53.944Z,292.50
2018-08-11T08:48:00.564Z,292.50
2018-08-11T08:49:07.273Z,303.75
2018-08-11T08:50:13.786Z,225.00
2018-08-11T08:51:20.390Z,219.38
2018-08-11T08:52:27.494Z,225.00
2018-08-11T08:53:33.605Z,253.13
2018-08-11T08:54:40.213Z,253.13
2018-08-11T08:55:46.818Z,343.13
2018-08-11T08:56:53.420Z,292.50
2018-08-11T08:58:00.031Z,281.25
2018-08-11T08:59:06.684Z,303.75
2018-08-11T09:00:13.277Z,360.00
2018-08-11T09:01:20.059Z,365.63
2018-08-11T09:02:26.480Z,421.88
2018-08-11T09:03:33.603Z,450.00
2018-08-11T09:04:39.743Z,405.00
2018-08-11T09:05:46.372Z,354.38
2018-08-11T09:06:53.011Z,264.38
2018-08-11T09:07:59.657Z,326.25
2018-08-11T09:09:06.294Z,253.13
2018-08-11T09:10:12.937Z,270.00
2018-08-11T09:11:19.582Z,303.75
2018-08-11T09:12:26.204Z,348.75
2018-08-11T09:13:32.862Z,337.50
2018-08-11T09:14:39.504Z,326.25
2018-08-11T09:15:46.135Z,281.25
2018-08-11T09:16:52.783Z,343.13
2018-08-11T09:17:59.419Z,354.38
2018-08-11T09:19:06.059Z,410.63
2018-08-11T09:20:12.720Z,433.13
2018-08-11T09:21:19.353Z,444.38
2018-08-11T09:22:26.024Z,466.88
2018-08-11T09:23:32.673Z,483.75
2018-08-11T09:24:39.337Z,517.50
2018-08-11T09:25:46.006Z,551.25
2018-08-11T09:26:53.276Z,540.00
2018-08-11T09:27:59.386Z,478.13
2018-08-11T09:29:06.101Z,450.00
2018-08-11T09:30:12.775Z,433.13
2018-08-11T09:31:19.479Z,461.25
2018-08-11T09:32:26.175Z,495.00
2018-08-11T09:33:32.900Z,568.13
2018-08-11T09:34:39.608Z,551.25
2018-08-11T09:35:46.331Z,556.88
2018-08-11T09:36:53.055Z,579.38
2018-08-11T09:37:59.801Z,534.38
2018-08-11T09:39:07.037Z,556.88
2018-08-11T09:40:13.302Z,517.50
2018-08-11T09:41:20.050Z,500.63
2018-08-11T09:42:26.777Z,556.88
2018-08-11T09:43:33.533Z,641.25
2018-08-11T09:44:40.288Z,624.38
2018-08-11T09:45:47.145Z,607.50
2018-08-11T09:46:53.833Z,540.00
2018-08-11T09:48:00.623Z,483.75
2018-08-11T09:49:07.409Z,405.00
2018-08-11T09:50:14.194Z,354.38
2018-08-11T09:51:20.951Z,405.00
2018-08-11T09:52:27.708Z,438.75
2018-08-11T09:53:34.481Z,438.75
2018-08-11T09:54:41.216Z,438.75
2018-08-11T09:55:47.958Z,489.38
2018-08-11T09:56:54.709Z,421.88
2018-08-11T09:58:01.466Z,450.00
2018-08-11T09:59:08.222Z,399.38
2018-08-11T10:00:14.986Z,371.25
2018-08-11T10:01:21.730Z,348.75
2018-08-11T10:02:28.478Z,337.50
2018-08-11T10:03:35.221Z,343.13
2018-08-11T10:04:41.965Z,315.00
2018-08-11T10:05:48.705Z,399.38
2018-08-11T10:06:56.238Z,354.38
2018-08-11T10:08:02.649Z,376.88
2018-08-11T10:09:10.275Z,472.50
2018-08-11T10:10:15.743Z,511.88
2018-08-11T10:11:22.754Z,517.50
2018-08-11T10:12:29.346Z,461.25
2018-08-11T10:13:36.308Z,489.38
2018-08-11T10:14:42.578Z,523.13
2018-08-11T10:15:49.312Z,624.38
2018-08-11T10:16:56.479Z,590.63
2018-08-11T10:18:03.246Z,585.00
2018-08-11T10:19:09.767Z,573.75
2018-08-11T10:20:16.380Z,573.75
2018-08-11T10:21:23.279Z,590.63
2018-08-11T10:22:29.940Z,635.63
2018-08-11T10:23:36.721Z,680.63
2018-08-11T10:24:43.449Z,680.63
2018-08-11T10:25:50.732Z,658.13
2018-08-11T10:26:57.099Z,630.00
2018-08-11T10:28:03.844Z,607.50
2018-08-11T10:29:10.914Z,579.38
2018-08-11T10:30:17.492Z,618.75
2018-08-11T10:31:24.476Z,624.38
2018-08-11T10:32:31.056Z,663.75
2018-08-11T10:33:38.144Z,686.25
2018-08-11T10:34:45.306Z,601.88
2018-08-11T10:35:51.623Z,562.50
2018-08-11T10:36:58.331Z,500.63
2018-08-11T10:38:06.694Z,489.38
2018-08-11T10:39:12.101Z,506.25
2018-08-11T10:40:19.649Z,461.25
2018-08-11T10:41:25.646Z,461.25
2018-08-11T10:42:32.797Z,523.13
2018-08-11T10:43:39.310Z,455.63
2018-08-11T10:44:46.140Z,405.00
2018-08-11T10:45:52.977Z,444.38
2018-08-11T10:46:59.834Z,472.50
2018-08-11T10:48:06.605Z,523.13
2018-08-11T10:49:13.457Z,466.88
2018-08-11T10:50:20.279Z,461.25
2018-08-11T10:51:27.101Z,517.50
2018-08-11T10:52:33.928Z,607.50
2018-08-11T10:53:40.779Z,596.25
2018-08-11T10:54:48.054Z,618.75
2018-08-11T10:55:54.497Z,590.63
2018-08-11T10:57:01.482Z,466.88
2018-08-11T10:58:08.129Z,433.13
2018-08-11T10:59:14.979Z,376.88
2018-08-11T11:00:21.788Z,292.50
2018-08-11T11:01:28.617Z,264.38
2018-08-11T11:02:35.431Z,253.13
2018-08-11T11:03:42.218Z,281.25
2018-08-11T11:04:48.981Z,292.50
2018-08-11T11:05:55.762Z,309.38
2018-08-11T11:07:02.523Z,320.63
2018-08-11T11:08:09.268Z,337.50
2018-08-11T11:09:16.012Z,365.63
2018-08-11T11:10:22.759Z,388.13
2018-08-11T11:11:29.512Z,405.00
2018-08-11T11:12:36.245Z,421.88
2018-08-11T11:13:42.990Z,450.00
2018-08-11T11:14:49.736Z,489.38
2018-08-11T11:15:56.497Z,511.88
2018-08-11T11:17:03.292Z,511.88
2018-08-11T11:18:10.085Z,511.88
2018-08-11T11:19:16.979Z,534.38
2018-08-11T11:20:23.948Z,545.63
2018-08-11T11:21:31.493Z,585.00
2018-08-11T11:22:38.091Z,618.75
2018-08-11T11:23:45.230Z,551.25
2018-08-11T11:24:52.384Z,731.25
2018-08-11T11:26:00.087Z,866.25
2018-08-11T11:27:06.852Z,478.13
2018-08-11T11:28:14.022Z,613.13
2018-08-11T11:29:21.273Z,360.00
2018-08-11T11:30:28.266Z,343.13
2018-08-11T11:31:35.330Z,354.38
2018-08-11T11:32:42.337Z,984.38
2018-08-11T11:33:49.420Z,939.38
2018-08-11T11:34:56.588Z,697.50
2018-08-11T11:36:03.811Z,849.38
2018-08-11T11:37:11.180Z,838.13
2018-08-11T11:38:18.468Z,292.50
2018-08-11T11:39:25.814Z,810.00
2018-08-11T11:40:33.204Z,798.75
2018-08-11T11:41:40.651Z,241.88
2018-08-11T11:42:48.970Z,427.50
2018-08-11T11:43:55.253Z,787.50
2018-08-11T11:45:02.584Z,787.50
2018-08-11T11:46:09.944Z,781.88
2018-08-11T11:47:17.364Z,787.50
2018-08-11T11:48:24.806Z,776.25
2018-08-11T11:49:32.318Z,776.25
2018-08-11T11:50:39.826Z,787.50
2018-08-11T11:51:47.384Z,793.13
2018-08-11T11:52:54.962Z,810.00
2018-08-11T11:54:02.557Z,821.25
2018-08-11T11:55:10.185Z,810.00
2018-08-11T11:56:17.832Z,810.00
2018-08-11T11:57:25.483Z,810.00
2018-08-11T11:58:33.144Z,815.63
2018-08-11T11:59:40.833Z,826.88
2018-08-11T12:00:48.518Z,838.13
2018-08-11T12:01:56.254Z,855.00
2018-08-11T12:03:03.960Z,871.88
2018-08-11T12:04:11.683Z,888.75
2018-08-11T12:05:19.425Z,905.63
2018-08-11T12:06:27.272Z,950.63
2018-08-11T12:07:34.960Z,1012.50
2018-08-11T12:08:42.755Z,1102.50
2018-08-11T12:09:50.587Z,1153.13
2018-08-11T12:10:58.423Z,984.38
2018-08-11T12:12:06.248Z,1108.13
2018-08-11T12:13:14.069Z,500.63
2018-08-11T12:14:21.775Z,540.00
2018-08-11T12:15:29.379Z,478.13
2018-08-11T12:16:36.972Z,956.25
2018-08-11T12:17:44.598Z,995.63
2018-08-11T12:18:52.252Z,933.75
2018-08-11T12:19:59.921Z,888.75
2018-08-11T12:21:07.659Z,877.50
2018-08-11T12:22:15.400Z,838.13
2018-08-11T12:23:23.189Z,928.13
2018-08-11T12:24:30.988Z,945.00
2018-08-11T12:25:38.819Z,888.75
2018-08-11T12:26:46.644Z,866.25
2018-08-11T12:27:54.482Z,877.50
2018-08-11T12:29:02.343Z,905.63
2018-08-11T12:30:10.690Z,939.38
2018-08-11T12:31:18.221Z,933.75
2018-08-11T12:32:25.932Z,984.38
2018-08-11T12:33:33.769Z,573.75
2018-08-11T12:34:41.526Z,984.38
2018-08-11T12:35:49.284Z,523.13
2018-08-11T12:36:56.880Z,399.38
2018-08-11T12:38:04.585Z,388.13
2018-08-11T12:39:11.954Z,506.25
2018-08-11T12:40:19.420Z,675.00
2018-08-11T12:41:26.818Z,663.75
2018-08-11T12:42:34.239Z,973.13
2018-08-11T12:43:41.729Z,748.13
2018-08-11T12:44:49.247Z,978.75
2018-08-11T12:45:56.854Z,990.00
2018-08-11T12:47:04.449Z,1040.63
2018-08-11T12:48:12.109Z,1057.50
2018-08-11T12:49:19.800Z,821.25
2018-08-11T12:50:27.476Z,652.50
2018-08-11T12:51:35.116Z,1023.75
2018-08-11T12:52:42.732Z,1051.88
2018-08-11T12:53:50.393Z,1035.00
2018-08-11T12:54:58.055Z,1085.63
2018-08-11T12:56:05.764Z,1181.25
2018-08-11T12:57:13.494Z,1136.25
2018-08-11T12:58:22.287Z,1203.75
2018-08-11T12:59:29.031Z,1175.63
2018-08-11T13:00:37.327Z,1198.13
2018-08-11T13:01:44.667Z,1091.25
2018-08-11T13:02:52.464Z,1046.25
2018-08-11T13:04:00.293Z,877.50
2018-08-11T13:05:08.106Z,939.38
2018-08-11T13:06:16.910Z,939.38
2018-08-11T13:07:23.717Z,545.63
2018-08-11T13:08:31.452Z,534.38
2018-08-11T13:09:39.146Z,973.13
2018-08-11T13:10:46.826Z,1029.38
2018-08-11T13:11:54.529Z,1023.75
2018-08-11T13:13:02.243Z,1057.50
2018-08-11T13:14:09.987Z,1051.88
2018-08-11T13:15:17.721Z,1001.25
2018-08-11T13:16:25.491Z,995.63
2018-08-11T13:17:33.257Z,1063.13
2018-08-11T13:18:41.047Z,1023.75
2018-08-11T13:19:48.822Z,905.63
2018-08-11T13:20:56.590Z,843.75
2018-08-11T13:22:04.352Z,945.00
2018-08-11T13:23:12.102Z,978.75
2018-08-11T13:24:19.864Z,900.00
2018-08-11T13:25:27.597Z,804.38
2018-08-11T13:26:35.341Z,1001.25
2018-08-11T13:27:43.074Z,1018.13
2018-08-11T13:28:50.824Z,866.25
2018-08-11T13:29:58.556Z,911.25
2018-08-11T13:31:06.282Z,900.00
2018-08-11T13:32:14.493Z,641.25
2018-08-11T13:33:21.698Z,540.00
2018-08-11T13:34:29.339Z,545.63
2018-08-11T13:35:36.917Z,562.50
2018-08-11T13:36:44.455Z,1091.25
2018-08-11T13:37:51.985Z,1051.88
2018-08-11T13:38:59.537Z,990.00
2018-08-11T13:40:07.095Z,900.00
2018-08-11T13:41:14.670Z,855.00
2018-08-11T13:42:22.245Z,421.88
2018-08-11T13:43:29.817Z,376.88
2018-08-11T13:44:37.346Z,354.38
2018-08-11T13:45:44.953Z,382.50
2018-08-11T13:46:52.295Z,393.75
2018-08-11T13:47:59.622Z,393.75
2018-08-11T13:49:06.971Z,399.38
2018-08-11T13:50:14.289Z,883.13
2018-08-11T13:51:21.600Z,933.75
2018-08-11T13:52:29.017Z,945.00
2018-08-11T13:53:36.303Z,916.88
2018-08-11T13:54:43.715Z,821.25
2018-08-11T13:55:51.140Z,838.13
2018-08-11T13:56:58.611Z,815.63
2018-08-11T13:58:06.076Z,826.88
2018-08-11T13:59:13.586Z,421.88
2018-08-11T14:00:21.070Z,849.38
2018-08-11T14:01:28.586Z,348.75
2018-08-11T14:02:36.031Z,843.75
2018-08-11T14:03:43.494Z,866.25
2018-08-11T14:04:50.968Z,815.63
2018-08-11T14:05:58.421Z,905.63
2018-08-11T14:07:05.902Z,427.50
2018-08-11T14:08:13.396Z,444.38
2018-08-11T14:09:20.884Z,804.38